sensor_id;sensor_type;location;lat;lon;timestamp;P1;durP1;ratioP1;P2;durP2;ratioP2
18669;SDS011;9464;44.918;9.670;2022-08-26T00:02:14;2.63;;;2.42;;
18669;SDS011;9464;44.918;9.670;2022-08-26T00:04:47;3.25;;;2.30;;
18669;SDS011;9464;44.918;9.670;2022-08-26T00:07:16;2.33;;;2.13;;
18669;SDS011;9464;44.918;9.670;2022-08-26T00:09:44;2.60;;;2.03;;
18669;SDS011;9464;44.918;9.670;2022-08-26T00:12:15;2.45;;;2.13;;
18669;SDS011;9464;44.918;9.670;2022-08-26T00:14:53;3.97;;;2.65;;
18669;SDS011;9464;44.918;9.670;2022-08-26T00:17:21;2.50;;;2.30;;
18669;SDS011;9464;44.918;9.670;2022-08-26T00:19:53;3.13;;;2.55;;
18669;SDS011;9464;44.918;9.670;2022-08-26T00:22:21;4.25;;;2.35;;
18669;SDS011;9464;44.918;9.670;2022-08-26T00:24:51;2.95;;;2.30;;
18669;SDS011;9464;44.918;9.670;2022-08-26T00:27:19;2.60;;;2.40;;
18669;SDS011;9464;44.918;9.670;2022-08-26T00:29:48;3.15;;;2.35;;
18669;SDS011;9464;44.918;9.670;2022-08-26T00:32:17;2.95;;;2.20;;
18669;SDS011;9464;44.918;9.670;2022-08-26T00:34:45;4.55;;;1.90;;
18669;SDS011;9464;44.918;9.670;2022-08-26T00:37:15;2.88;;;2.40;;
18669;SDS011;9464;44.918;9.670;2022-08-26T00:39:45;3.00;;;2.47;;
18669;SDS011;9464;44.918;9.670;2022-08-26T00:42:14;3.13;;;2.50;;
18669;SDS011;9464;44.918;9.670;2022-08-26T00:44:42;2.42;;;2.22;;
18669;SDS011;9464;44.918;9.670;2022-08-26T00:47:18;2.22;;;2.00;;
18669;SDS011;9464;44.918;9.670;2022-08-26T00:49:49;3.53;;;1.90;;
18669;SDS011;9464;44.918;9.670;2022-08-26T00:52:20;3.28;;;2.50;;
18669;SDS011;9464;44.918;9.670;2022-08-26T00:54:50;4.43;;;2.47;;
18669;SDS011;9464;44.918;9.670;2022-08-26T00:57:20;2.55;;;2.28;;
18669;SDS011;9464;44.918;9.670;2022-08-26T00:59:52;2.90;;;2.30;;
18669;SDS011;9464;44.918;9.670;2022-08-26T01:02:20;4.93;;;2.10;;
18669;SDS011;9464;44.918;9.670;2022-08-26T01:04:50;3.30;;;2.38;;
18669;SDS011;9464;44.918;9.670;2022-08-26T01:07:23;3.45;;;2.60;;
18669;SDS011;9464;44.918;9.670;2022-08-26T01:09:55;3.58;;;2.22;;
18669;SDS011;9464;44.918;9.670;2022-08-26T01:12:24;2.60;;;2.28;;
18669;SDS011;9464;44.918;9.670;2022-08-26T01:14:54;3.28;;;2.17;;
18669;SDS011;9464;44.918;9.670;2022-08-26T01:17:23;2.53;;;2.33;;
18669;SDS011;9464;44.918;9.670;2022-08-26T01:19:53;2.42;;;2.17;;
18669;SDS011;9464;44.918;9.670;2022-08-26T01:22:26;2.88;;;2.20;;
18669;SDS011;9464;44.918;9.670;2022-08-26T01:24:58;2.85;;;2.25;;
18669;SDS011;9464;44.918;9.670;2022-08-26T01:27:29;2.75;;;2.50;;
18669;SDS011;9464;44.918;9.670;2022-08-26T01:30:01;2.40;;;2.17;;
18669;SDS011;9464;44.918;9.670;2022-08-26T01:32:29;3.50;;;2.33;;
18669;SDS011;9464;44.918;9.670;2022-08-26T01:34:59;2.40;;;2.20;;
18669;SDS011;9464;44.918;9.670;2022-08-26T01:37:28;3.15;;;2.22;;
18669;SDS011;9464;44.918;9.670;2022-08-26T01:40:03;3.05;;;2.30;;
18669;SDS011;9464;44.918;9.670;2022-08-26T01:42:32;2.60;;;2.40;;
18669;SDS011;9464;44.918;9.670;2022-08-26T01:45:03;2.35;;;2.15;;
18669;SDS011;9464;44.918;9.670;2022-08-26T01:47:32;2.33;;;2.13;;
18669;SDS011;9464;44.918;9.670;2022-08-26T01:50:05;2.72;;;2.40;;
18669;SDS011;9464;44.918;9.670;2022-08-26T01:52:35;3.15;;;2.65;;
18669;SDS011;9464;44.918;9.670;2022-08-26T01:55:07;2.65;;;2.42;;
18669;SDS011;9464;44.918;9.670;2022-08-26T01:57:35;5.45;;;2.67;;
18669;SDS011;9464;44.918;9.670;2022-08-26T02:00:06;2.83;;;1.90;;
18669;SDS011;9464;44.918;9.670;2022-08-26T02:02:34;2.47;;;2.17;;
18669;SDS011;9464;44.918;9.670;2022-08-26T02:05:04;3.65;;;2.60;;
18669;SDS011;9464;44.918;9.670;2022-08-26T02:07:33;2.40;;;2.10;;
18669;SDS011;9464;44.918;9.670;2022-08-26T02:10:02;4.22;;;2.38;;
18669;SDS011;9464;44.918;9.670;2022-08-26T02:12:33;2.67;;;2.33;;
18669;SDS011;9464;44.918;9.670;2022-08-26T02:15:03;2.28;;;2.00;;
18669;SDS011;9464;44.918;9.670;2022-08-26T02:17:33;2.95;;;2.30;;
18669;SDS011;9464;44.918;9.670;2022-08-26T02:20:04;2.92;;;2.58;;
18669;SDS011;9464;44.918;9.670;2022-08-26T02:22:40;2.85;;;2.55;;
18669;SDS011;9464;44.918;9.670;2022-08-26T02:25:11;2.22;;;2.03;;
18669;SDS011;9464;44.918;9.670;2022-08-26T02:27:43;2.30;;;2.10;;
18669;SDS011;9464;44.918;9.670;2022-08-26T02:30:14;3.25;;;2.20;;
18669;SDS011;9464;44.918;9.670;2022-08-26T02:32:43;2.53;;;2.05;;
18669;SDS011;9464;44.918;9.670;2022-08-26T02:35:15;4.55;;;2.47;;
18669;SDS011;9464;44.918;9.670;2022-08-26T02:37:45;2.42;;;2.22;;
18669;SDS011;9464;44.918;9.670;2022-08-26T02:40:15;3.92;;;2.42;;
18669;SDS011;9464;44.918;9.670;2022-08-26T02:42:45;2.85;;;2.25;;
18669;SDS011;9464;44.918;9.670;2022-08-26T02:45:14;5.00;;;2.58;;
18669;SDS011;9464;44.918;9.670;2022-08-26T02:47:49;2.55;;;2.20;;
18669;SDS011;9464;44.918;9.670;2022-08-26T02:50:18;2.72;;;2.20;;
18669;SDS011;9464;44.918;9.670;2022-08-26T02:52:47;3.00;;;2.60;;
18669;SDS011;9464;44.918;9.670;2022-08-26T02:55:16;2.70;;;2.50;;
18669;SDS011;9464;44.918;9.670;2022-08-26T02:57:46;2.58;;;2.33;;
18669;SDS011;9464;44.918;9.670;2022-08-26T03:00:15;3.35;;;2.63;;
18669;SDS011;9464;44.918;9.670;2022-08-26T03:02:43;3.30;;;2.80;;
18669;SDS011;9464;44.918;9.670;2022-08-26T03:05:12;3.67;;;2.20;;
18669;SDS011;9464;44.918;9.670;2022-08-26T03:07:41;3.97;;;2.60;;
18669;SDS011;9464;44.918;9.670;2022-08-26T03:10:10;3.50;;;2.30;;
18669;SDS011;9464;44.918;9.670;2022-08-26T03:12:40;3.20;;;2.60;;
18669;SDS011;9464;44.918;9.670;2022-08-26T03:15:14;2.80;;;2.60;;
18669;SDS011;9464;44.918;9.670;2022-08-26T03:17:44;2.35;;;2.15;;
18669;SDS011;9464;44.918;9.670;2022-08-26T03:20:13;3.47;;;2.42;;
18669;SDS011;9464;44.918;9.670;2022-08-26T03:22:43;2.30;;;2.10;;
18669;SDS011;9464;44.918;9.670;2022-08-26T03:25:13;2.57;;;2.37;;
18669;SDS011;9464;44.918;9.670;2022-08-26T03:27:42;4.50;;;2.70;;
18669;SDS011;9464;44.918;9.670;2022-08-26T03:30:11;2.50;;;2.30;;
18669;SDS011;9464;44.918;9.670;2022-08-26T03:32:59;2.40;;;2.20;;
18669;SDS011;9464;44.918;9.670;2022-08-26T03:35:29;5.00;;;2.53;;
18669;SDS011;9464;44.918;9.670;2022-08-26T03:37:58;3.00;;;2.60;;
18669;SDS011;9464;44.918;9.670;2022-08-26T03:40:27;3.08;;;2.22;;
18669;SDS011;9464;44.918;9.670;2022-08-26T03:42:59;3.83;;;2.30;;
18669;SDS011;9464;44.918;9.670;2022-08-26T03:45:27;4.10;;;2.28;;
18669;SDS011;9464;44.918;9.670;2022-08-26T03:47:56;3.83;;;2.50;;
18669;SDS011;9464;44.918;9.670;2022-08-26T03:50:26;2.70;;;2.45;;
18669;SDS011;9464;44.918;9.670;2022-08-26T03:52:59;2.55;;;2.28;;
18669;SDS011;9464;44.918;9.670;2022-08-26T03:55:29;3.85;;;2.70;;
18669;SDS011;9464;44.918;9.670;2022-08-26T03:57:58;2.47;;;2.20;;
18669;SDS011;9464;44.918;9.670;2022-08-26T04:00:27;2.83;;;2.60;;
18669;SDS011;9464;44.918;9.670;2022-08-26T04:02:56;2.65;;;2.45;;
18669;SDS011;9464;44.918;9.670;2022-08-26T04:05:26;3.50;;;2.38;;
18669;SDS011;9464;44.918;9.670;2022-08-26T04:07:54;3.72;;;2.67;;
18669;SDS011;9464;44.918;9.670;2022-08-26T04:10:23;3.78;;;2.17;;
18669;SDS011;9464;44.918;9.670;2022-08-26T04:12:54;2.50;;;2.20;;
18669;SDS011;9464;44.918;9.670;2022-08-26T04:15:24;3.75;;;2.30;;
18669;SDS011;9464;44.918;9.670;2022-08-26T04:17:53;2.85;;;2.22;;
18669;SDS011;9464;44.918;9.670;2022-08-26T04:20:23;3.00;;;2.50;;
18669;SDS011;9464;44.918;9.670;2022-08-26T04:22:52;2.55;;;2.33;;
18669;SDS011;9464;44.918;9.670;2022-08-26T04:25:22;3.20;;;2.30;;
18669;SDS011;9464;44.918;9.670;2022-08-26T04:27:50;4.03;;;2.55;;
18669;SDS011;9464;44.918;9.670;2022-08-26T04:30:20;2.72;;;2.50;;
18669;SDS011;9464;44.918;9.670;2022-08-26T04:32:50;3.17;;;2.20;;
18669;SDS011;9464;44.918;9.670;2022-08-26T04:35:19;2.83;;;2.57;;
18669;SDS011;9464;44.918;9.670;2022-08-26T04:37:52;5.45;;;2.65;;
18669;SDS011;9464;44.918;9.670;2022-08-26T04:40:22;2.92;;;2.45;;
18669;SDS011;9464;44.918;9.670;2022-08-26T04:42:53;4.05;;;2.58;;
18669;SDS011;9464;44.918;9.670;2022-08-26T04:45:22;2.97;;;2.40;;
18669;SDS011;9464;44.918;9.670;2022-08-26T04:47:53;3.53;;;2.78;;
18669;SDS011;9464;44.918;9.670;2022-08-26T04:50:22;3.00;;;2.40;;
18669;SDS011;9464;44.918;9.670;2022-08-26T04:52:53;4.78;;;2.53;;
18669;SDS011;9464;44.918;9.670;2022-08-26T04:55:22;3.10;;;2.80;;
18669;SDS011;9464;44.918;9.670;2022-08-26T04:58:05;2.90;;;2.27;;
18669;SDS011;9464;44.918;9.670;2022-08-26T05:00:35;5.40;;;2.60;;
18669;SDS011;9464;44.918;9.670;2022-08-26T05:03:04;4.40;;;2.70;;
18669;SDS011;9464;44.918;9.670;2022-08-26T05:05:36;2.20;;;1.97;;
18669;SDS011;9464;44.918;9.670;2022-08-26T05:08:06;3.45;;;2.30;;
18669;SDS011;9464;44.918;9.670;2022-08-26T05:10:39;4.35;;;2.33;;
18669;SDS011;9464;44.918;9.670;2022-08-26T05:13:09;3.35;;;2.63;;
18669;SDS011;9464;44.918;9.670;2022-08-26T05:15:40;4.25;;;2.25;;
18669;SDS011;9464;44.918;9.670;2022-08-26T05:18:10;5.65;;;2.60;;
18669;SDS011;9464;44.918;9.670;2022-08-26T05:20:39;3.30;;;2.60;;
18669;SDS011;9464;44.918;9.670;2022-08-26T05:23:09;3.45;;;2.13;;
18669;SDS011;9464;44.918;9.670;2022-08-26T05:25:38;3.08;;;2.60;;
18669;SDS011;9464;44.918;9.670;2022-08-26T05:28:07;3.83;;;3.00;;
18669;SDS011;9464;44.918;9.670;2022-08-26T05:30:36;3.58;;;2.42;;
18669;SDS011;9464;44.918;9.670;2022-08-26T05:33:05;3.30;;;2.50;;
18669;SDS011;9464;44.918;9.670;2022-08-26T05:35:35;2.55;;;2.35;;
18669;SDS011;9464;44.918;9.670;2022-08-26T05:38:05;3.70;;;2.47;;
18669;SDS011;9464;44.918;9.670;2022-08-26T05:40:40;2.90;;;2.35;;
18669;SDS011;9464;44.918;9.670;2022-08-26T05:43:10;2.70;;;2.42;;
18669;SDS011;9464;44.918;9.670;2022-08-26T05:45:39;4.60;;;2.33;;
18669;SDS011;9464;44.918;9.670;2022-08-26T05:48:11;4.55;;;2.70;;
18669;SDS011;9464;44.918;9.670;2022-08-26T05:50:42;5.32;;;3.38;;
18669;SDS011;9464;44.918;9.670;2022-08-26T05:53:11;4.05;;;3.58;;
18669;SDS011;9464;44.918;9.670;2022-08-26T05:55:45;5.13;;;3.72;;
18669;SDS011;9464;44.918;9.670;2022-08-26T05:58:15;5.72;;;4.20;;
18669;SDS011;9464;44.918;9.670;2022-08-26T06:00:45;4.25;;;3.47;;
18669;SDS011;9464;44.918;9.670;2022-08-26T06:03:15;4.25;;;3.10;;
18669;SDS011;9464;44.918;9.670;2022-08-26T06:05:43;4.70;;;2.95;;
18669;SDS011;9464;44.918;9.670;2022-08-26T06:08:12;3.30;;;2.97;;
18669;SDS011;9464;44.918;9.670;2022-08-26T06:10:46;3.70;;;2.80;;
18669;SDS011;9464;44.918;9.670;2022-08-26T06:13:16;3.35;;;2.72;;
18669;SDS011;9464;44.918;9.670;2022-08-26T06:15:46;5.72;;;3.08;;
18669;SDS011;9464;44.918;9.670;2022-08-26T06:18:16;5.32;;;3.30;;
18669;SDS011;9464;44.918;9.670;2022-08-26T06:20:45;4.15;;;3.03;;
18669;SDS011;9464;44.918;9.670;2022-08-26T06:23:23;3.53;;;2.85;;
18669;SDS011;9464;44.918;9.670;2022-08-26T06:26:11;3.60;;;2.70;;
18669;SDS011;9464;44.918;9.670;2022-08-26T06:28:41;4.38;;;2.60;;
18669;SDS011;9464;44.918;9.670;2022-08-26T06:31:11;3.75;;;2.80;;
18669;SDS011;9464;44.918;9.670;2022-08-26T06:33:40;4.60;;;3.10;;
18669;SDS011;9464;44.918;9.670;2022-08-26T06:36:12;4.38;;;3.03;;
18669;SDS011;9464;44.918;9.670;2022-08-26T06:38:44;4.10;;;2.50;;
18669;SDS011;9464;44.918;9.670;2022-08-26T06:41:14;2.97;;;2.65;;
18669;SDS011;9464;44.918;9.670;2022-08-26T06:43:43;4.68;;;3.35;;
18669;SDS011;9464;44.918;9.670;2022-08-26T06:46:12;4.43;;;2.53;;
18669;SDS011;9464;44.918;9.670;2022-08-26T06:48:42;2.90;;;2.60;;
18669;SDS011;9464;44.918;9.670;2022-08-26T06:51:12;5.15;;;2.75;;
18669;SDS011;9464;44.918;9.670;2022-08-26T06:53:42;3.70;;;2.90;;
18669;SDS011;9464;44.918;9.670;2022-08-26T06:56:16;2.70;;;2.35;;
18669;SDS011;9464;44.918;9.670;2022-08-26T06:58:44;3.10;;;2.63;;
18669;SDS011;9464;44.918;9.670;2022-08-26T07:01:13;3.15;;;2.58;;
18669;SDS011;9464;44.918;9.670;2022-08-26T07:03:43;5.80;;;2.88;;
18669;SDS011;9464;44.918;9.670;2022-08-26T07:06:13;6.43;;;3.10;;
18669;SDS011;9464;44.918;9.670;2022-08-26T07:08:43;3.13;;;2.78;;
18669;SDS011;9464;44.918;9.670;2022-08-26T07:11:12;3.25;;;2.78;;
18669;SDS011;9464;44.918;9.670;2022-08-26T07:13:43;3.03;;;2.47;;
18669;SDS011;9464;44.918;9.670;2022-08-26T07:16:14;2.70;;;2.50;;
18669;SDS011;9464;44.918;9.670;2022-08-26T07:18:43;2.75;;;2.20;;
18669;SDS011;9464;44.918;9.670;2022-08-26T07:21:15;3.55;;;2.10;;
18669;SDS011;9464;44.918;9.670;2022-08-26T07:23:44;2.60;;;2.40;;
18669;SDS011;9464;44.918;9.670;2022-08-26T07:26:15;2.40;;;2.15;;
18669;SDS011;9464;44.918;9.670;2022-08-26T07:28:46;2.20;;;2.05;;
18669;SDS011;9464;44.918;9.670;2022-08-26T07:31:19;4.15;;;2.50;;
18669;SDS011;9464;44.918;9.670;2022-08-26T07:33:48;3.15;;;2.40;;
18669;SDS011;9464;44.918;9.670;2022-08-26T07:36:17;3.22;;;2.50;;
18669;SDS011;9464;44.918;9.670;2022-08-26T07:38:46;3.25;;;2.38;;
18669;SDS011;9464;44.918;9.670;2022-08-26T07:41:16;2.78;;;2.40;;
18669;SDS011;9464;44.918;9.670;2022-08-26T07:43:46;5.22;;;2.13;;
18669;SDS011;9464;44.918;9.670;2022-08-26T07:46:16;2.83;;;2.15;;
18669;SDS011;9464;44.918;9.670;2022-08-26T07:48:55;2.60;;;2.38;;
18669;SDS011;9464;44.918;9.670;2022-08-26T07:51:24;3.65;;;2.30;;
18669;SDS011;9464;44.918;9.670;2022-08-26T07:53:53;2.95;;;2.40;;
18669;SDS011;9464;44.918;9.670;2022-08-26T07:56:22;3.30;;;2.05;;
18669;SDS011;9464;44.918;9.670;2022-08-26T07:58:52;3.13;;;2.10;;
18669;SDS011;9464;44.918;9.670;2022-08-26T08:01:22;2.33;;;2.13;;
18669;SDS011;9464;44.918;9.670;2022-08-26T08:03:52;3.53;;;2.35;;
18669;SDS011;9464;44.918;9.670;2022-08-26T08:06:21;3.88;;;2.47;;
18669;SDS011;9464;44.918;9.670;2022-08-26T08:08:53;2.70;;;2.00;;
18669;SDS011;9464;44.918;9.670;2022-08-26T08:11:22;2.90;;;2.50;;
18669;SDS011;9464;44.918;9.670;2022-08-26T08:13:54;2.72;;;2.30;;
18669;SDS011;9464;44.918;9.670;2022-08-26T08:16:23;3.78;;;2.40;;
18669;SDS011;9464;44.918;9.670;2022-08-26T08:18:53;2.95;;;2.58;;
18669;SDS011;9464;44.918;9.670;2022-08-26T08:21:22;3.95;;;2.42;;
18669;SDS011;9464;44.918;9.670;2022-08-26T08:23:51;2.97;;;2.20;;
18669;SDS011;9464;44.918;9.670;2022-08-26T08:26:20;4.38;;;2.33;;
18669;SDS011;9464;44.918;9.670;2022-08-26T08:28:48;3.03;;;2.30;;
18669;SDS011;9464;44.918;9.670;2022-08-26T08:31:19;4.28;;;2.25;;
18669;SDS011;9464;44.918;9.670;2022-08-26T08:34:08;3.67;;;2.30;;
18669;SDS011;9464;44.918;9.670;2022-08-26T08:36:36;2.78;;;2.25;;
18669;SDS011;9464;44.918;9.670;2022-08-26T08:39:06;3.78;;;2.47;;
18669;SDS011;9464;44.918;9.670;2022-08-26T08:41:40;3.15;;;2.53;;
18669;SDS011;9464;44.918;9.670;2022-08-26T08:44:15;3.92;;;2.88;;
18669;SDS011;9464;44.918;9.670;2022-08-26T08:46:47;2.95;;;2.70;;
18669;SDS011;9464;44.918;9.670;2022-08-26T08:49:17;7.53;;;2.90;;
18669;SDS011;9464;44.918;9.670;2022-08-26T08:51:47;3.17;;;2.88;;
18669;SDS011;9464;44.918;9.670;2022-08-26T08:54:17;2.83;;;2.53;;
18669;SDS011;9464;44.918;9.670;2022-08-26T08:56:48;4.35;;;2.67;;
18669;SDS011;9464;44.918;9.670;2022-08-26T08:59:19;4.03;;;2.97;;
18669;SDS011;9464;44.918;9.670;2022-08-26T09:01:52;6.28;;;3.08;;
18669;SDS011;9464;44.918;9.670;2022-08-26T09:07:08;3.80;;;3.20;;
18669;SDS011;9464;44.918;9.670;2022-08-26T09:09:38;3.25;;;2.70;;
18669;SDS011;9464;44.918;9.670;2022-08-26T09:12:08;4.80;;;2.80;;
18669;SDS011;9464;44.918;9.670;2022-08-26T09:14:38;5.22;;;3.10;;
18669;SDS011;9464;44.918;9.670;2022-08-26T09:17:11;6.13;;;2.75;;
18669;SDS011;9464;44.918;9.670;2022-08-26T09:19:45;4.03;;;2.63;;
18669;SDS011;9464;44.918;9.670;2022-08-26T09:22:26;3.55;;;2.67;;
18669;SDS011;9464;44.918;9.670;2022-08-26T09:24:55;3.10;;;2.65;;
18669;SDS011;9464;44.918;9.670;2022-08-26T09:27:37;4.40;;;2.90;;
18669;SDS011;9464;44.918;9.670;2022-08-26T09:30:07;3.95;;;2.83;;
18669;SDS011;9464;44.918;9.670;2022-08-26T09:32:38;3.63;;;3.25;;
18669;SDS011;9464;44.918;9.670;2022-08-26T09:35:08;4.45;;;3.08;;
18669;SDS011;9464;44.918;9.670;2022-08-26T09:37:39;3.88;;;3.10;;
18669;SDS011;9464;44.918;9.670;2022-08-26T09:40:16;10.88;;;3.72;;
18669;SDS011;9464;44.918;9.670;2022-08-26T09:42:45;3.80;;;3.35;;
18669;SDS011;9464;44.918;9.670;2022-08-26T09:45:14;5.10;;;3.40;;
18669;SDS011;9464;44.918;9.670;2022-08-26T09:47:52;7.00;;;3.50;;
18669;SDS011;9464;44.918;9.670;2022-08-26T09:50:22;5.40;;;3.90;;
18669;SDS011;9464;44.918;9.670;2022-08-26T09:53:08;4.70;;;3.30;;
18669;SDS011;9464;44.918;9.670;2022-08-26T09:55:39;3.80;;;3.10;;
18669;SDS011;9464;44.918;9.670;2022-08-26T09:58:11;6.70;;;3.58;;
18669;SDS011;9464;44.918;9.670;2022-08-26T10:00:40;3.53;;;3.22;;
18669;SDS011;9464;44.918;9.670;2022-08-26T10:03:12;8.43;;;3.50;;
18669;SDS011;9464;44.918;9.670;2022-08-26T10:05:53;6.47;;;4.25;;
18669;SDS011;9464;44.918;9.670;2022-08-26T10:08:24;7.60;;;3.60;;
18669;SDS011;9464;44.918;9.670;2022-08-26T10:10:55;6.80;;;3.53;;
18669;SDS011;9464;44.918;9.670;2022-08-26T10:13:25;3.85;;;3.20;;
18669;SDS011;9464;44.918;9.670;2022-08-26T10:15:58;5.63;;;3.83;;
18669;SDS011;9464;44.918;9.670;2022-08-26T10:18:32;7.85;;;3.13;;
18669;SDS011;9464;44.918;9.670;2022-08-26T10:21:03;6.72;;;3.00;;
18669;SDS011;9464;44.918;9.670;2022-08-26T10:23:35;4.63;;;3.78;;
18669;SDS011;9464;44.918;9.670;2022-08-26T10:26:11;5.80;;;3.40;;
18669;SDS011;9464;44.918;9.670;2022-08-26T10:28:42;4.82;;;3.63;;
18669;SDS011;9464;44.918;9.670;2022-08-26T10:34:07;4.20;;;3.08;;
18669;SDS011;9464;44.918;9.670;2022-08-26T10:36:40;3.30;;;2.95;;
18669;SDS011;9464;44.918;9.670;2022-08-26T10:39:35;4.30;;;3.00;;
18669;SDS011;9464;44.918;9.670;2022-08-26T10:42:07;4.88;;;3.60;;
18669;SDS011;9464;44.918;9.670;2022-08-26T10:44:36;3.97;;;3.47;;
18669;SDS011;9464;44.918;9.670;2022-08-26T10:47:11;4.75;;;3.60;;
18669;SDS011;9464;44.918;9.670;2022-08-26T10:49:44;5.95;;;3.90;;
18669;SDS011;9464;44.918;9.670;2022-08-26T10:52:15;5.68;;;3.67;;
18669;SDS011;9464;44.918;9.670;2022-08-26T10:54:49;4.63;;;3.28;;
18669;SDS011;9464;44.918;9.670;2022-08-26T10:57:21;4.63;;;3.65;;
18669;SDS011;9464;44.918;9.670;2022-08-26T10:59:52;3.92;;;3.47;;
18669;SDS011;9464;44.918;9.670;2022-08-26T11:02:24;5.18;;;3.92;;
18669;SDS011;9464;44.918;9.670;2022-08-26T11:04:58;4.32;;;3.10;;
18669;SDS011;9464;44.918;9.670;2022-08-26T11:07:35;5.07;;;4.13;;
18669;SDS011;9464;44.918;9.670;2022-08-26T11:10:51;5.15;;;3.33;;
18669;SDS011;9464;44.918;9.670;2022-08-26T11:13:06;6.50;;;3.53;;
18669;SDS011;9464;44.918;9.670;2022-08-26T11:18:40;3.55;;;3.20;;
18669;SDS011;9464;44.918;9.670;2022-08-26T11:24:06;4.10;;;3.22;;
18669;SDS011;9464;44.918;9.670;2022-08-26T11:26:35;4.20;;;3.30;;
18669;SDS011;9464;44.918;9.670;2022-08-26T11:32:05;6.05;;;3.20;;
18669;SDS011;9464;44.918;9.670;2022-08-26T11:34:51;5.82;;;3.70;;
18669;SDS011;9464;44.918;9.670;2022-08-26T11:37:21;6.32;;;3.20;;
18669;SDS011;9464;44.918;9.670;2022-08-26T11:39:53;3.35;;;3.05;;
18669;SDS011;9464;44.918;9.670;2022-08-26T11:42:28;4.25;;;3.08;;
18669;SDS011;9464;44.918;9.670;2022-08-26T11:44:58;6.38;;;3.08;;
18669;SDS011;9464;44.918;9.670;2022-08-26T11:47:31;9.27;;;3.45;;
18669;SDS011;9464;44.918;9.670;2022-08-26T11:50:06;6.32;;;3.50;;
18669;SDS011;9464;44.918;9.670;2022-08-26T11:52:35;7.07;;;3.20;;
18669;SDS011;9464;44.918;9.670;2022-08-26T11:55:07;7.03;;;3.17;;
18669;SDS011;9464;44.918;9.670;2022-08-26T11:57:39;5.75;;;3.05;;
18669;SDS011;9464;44.918;9.670;2022-08-26T12:00:10;5.75;;;2.92;;
18669;SDS011;9464;44.918;9.670;2022-08-26T12:02:48;4.85;;;2.75;;
18669;SDS011;9464;44.918;9.670;2022-08-26T12:05:20;3.20;;;2.42;;
18669;SDS011;9464;44.918;9.670;2022-08-26T12:07:52;3.20;;;2.90;;
18669;SDS011;9464;44.918;9.670;2022-08-26T12:10:26;4.82;;;2.95;;
18669;SDS011;9464;44.918;9.670;2022-08-26T12:12:56;8.82;;;2.97;;
18669;SDS011;9464;44.918;9.670;2022-08-26T12:15:25;3.80;;;3.15;;
18669;SDS011;9464;44.918;9.670;2022-08-26T12:17:55;3.45;;;2.60;;
18669;SDS011;9464;44.918;9.670;2022-08-26T12:20:29;3.55;;;2.55;;
18669;SDS011;9464;44.918;9.670;2022-08-26T12:23:21;3.00;;;2.72;;
18669;SDS011;9464;44.918;9.670;2022-08-26T12:25:52;2.70;;;2.40;;
18669;SDS011;9464;44.918;9.670;2022-08-26T12:28:29;5.70;;;2.50;;
18669;SDS011;9464;44.918;9.670;2022-08-26T12:30:58;4.25;;;2.65;;
18669;SDS011;9464;44.918;9.670;2022-08-26T12:33:27;4.22;;;2.60;;
18669;SDS011;9464;44.918;9.670;2022-08-26T12:35:56;3.75;;;2.50;;
18669;SDS011;9464;44.918;9.670;2022-08-26T12:38:27;3.67;;;2.63;;
18669;SDS011;9464;44.918;9.670;2022-08-26T12:40:57;3.55;;;2.95;;
18669;SDS011;9464;44.918;9.670;2022-08-26T12:43:36;3.05;;;2.83;;
18669;SDS011;9464;44.918;9.670;2022-08-26T12:46:05;2.90;;;2.47;;
18669;SDS011;9464;44.918;9.670;2022-08-26T12:48:35;4.55;;;3.17;;
18669;SDS011;9464;44.918;9.670;2022-08-26T12:51:05;4.13;;;3.03;;
18669;SDS011;9464;44.918;9.670;2022-08-26T12:53:39;3.53;;;2.85;;
18669;SDS011;9464;44.918;9.670;2022-08-26T12:56:18;6.00;;;3.08;;
18669;SDS011;9464;44.918;9.670;2022-08-26T12:58:59;3.15;;;2.78;;
18669;SDS011;9464;44.918;9.670;2022-08-26T13:01:34;4.70;;;2.42;;
18669;SDS011;9464;44.918;9.670;2022-08-26T13:04:04;4.35;;;2.38;;
18669;SDS011;9464;44.918;9.670;2022-08-26T13:06:33;3.20;;;2.60;;
18669;SDS011;9464;44.918;9.670;2022-08-26T13:09:02;2.83;;;2.53;;
18669;SDS011;9464;44.918;9.670;2022-08-26T13:11:34;5.80;;;2.50;;
18669;SDS011;9464;44.918;9.670;2022-08-26T13:14:22;2.78;;;2.20;;
18669;SDS011;9464;44.918;9.670;2022-08-26T13:16:51;3.90;;;2.63;;
18669;SDS011;9464;44.918;9.670;2022-08-26T13:19:20;2.72;;;2.40;;
18669;SDS011;9464;44.918;9.670;2022-08-26T13:21:49;2.33;;;2.13;;
18669;SDS011;9464;44.918;9.670;2022-08-26T13:24:20;8.95;;;2.45;;
18669;SDS011;9464;44.918;9.670;2022-08-26T13:26:50;4.40;;;3.00;;
18669;SDS011;9464;44.918;9.670;2022-08-26T13:29:18;4.50;;;2.25;;
18669;SDS011;9464;44.918;9.670;2022-08-26T13:31:49;6.93;;;2.63;;
18669;SDS011;9464;44.918;9.670;2022-08-26T13:34:19;3.47;;;2.63;;
18669;SDS011;9464;44.918;9.670;2022-08-26T13:36:49;3.38;;;2.60;;
18669;SDS011;9464;44.918;9.670;2022-08-26T13:39:18;3.15;;;2.38;;
18669;SDS011;9464;44.918;9.670;2022-08-26T13:41:47;3.33;;;2.78;;
18669;SDS011;9464;44.918;9.670;2022-08-26T13:44:17;4.95;;;2.75;;
18669;SDS011;9464;44.918;9.670;2022-08-26T13:46:47;4.53;;;2.55;;
18669;SDS011;9464;44.918;9.670;2022-08-26T13:49:15;5.75;;;2.63;;
18669;SDS011;9464;44.918;9.670;2022-08-26T13:51:44;2.78;;;2.47;;
18669;SDS011;9464;44.918;9.670;2022-08-26T13:54:12;2.70;;;2.50;;
18669;SDS011;9464;44.918;9.670;2022-08-26T13:56:41;3.38;;;2.95;;
18669;SDS011;9464;44.918;9.670;2022-08-26T13:59:09;3.70;;;2.90;;
18669;SDS011;9464;44.918;9.670;2022-08-26T14:01:39;4.53;;;2.90;;
18669;SDS011;9464;44.918;9.670;2022-08-26T14:04:08;5.68;;;3.10;;
18669;SDS011;9464;44.918;9.670;2022-08-26T14:06:36;3.28;;;2.97;;
18669;SDS011;9464;44.918;9.670;2022-08-26T14:09:04;5.15;;;2.95;;
18669;SDS011;9464;44.918;9.670;2022-08-26T14:11:36;3.08;;;2.78;;
18669;SDS011;9464;44.918;9.670;2022-08-26T14:14:19;3.85;;;3.10;;
18669;SDS011;9464;44.918;9.670;2022-08-26T14:16:49;3.95;;;3.13;;
18669;SDS011;9464;44.918;9.670;2022-08-26T14:19:25;4.50;;;3.00;;
18669;SDS011;9464;44.918;9.670;2022-08-26T14:21:54;3.05;;;2.75;;
18669;SDS011;9464;44.918;9.670;2022-08-26T14:24:24;3.20;;;2.90;;
18669;SDS011;9464;44.918;9.670;2022-08-26T14:26:52;3.33;;;2.75;;
18669;SDS011;9464;44.918;9.670;2022-08-26T14:29:21;6.25;;;3.25;;
18669;SDS011;9464;44.918;9.670;2022-08-26T14:31:51;3.63;;;3.05;;
18669;SDS011;9464;44.918;9.670;2022-08-26T14:34:19;3.97;;;3.10;;
18669;SDS011;9464;44.918;9.670;2022-08-26T14:36:48;4.72;;;2.75;;
18669;SDS011;9464;44.918;9.670;2022-08-26T14:39:16;6.57;;;2.88;;
18669;SDS011;9464;44.918;9.670;2022-08-26T14:41:45;5.07;;;3.00;;
18669;SDS011;9464;44.918;9.670;2022-08-26T14:44:20;3.65;;;2.95;;
18669;SDS011;9464;44.918;9.670;2022-08-26T14:46:51;3.65;;;2.65;;
18669;SDS011;9464;44.918;9.670;2022-08-26T14:49:20;5.63;;;3.00;;
18669;SDS011;9464;44.918;9.670;2022-08-26T14:51:49;6.85;;;3.17;;
18669;SDS011;9464;44.918;9.670;2022-08-26T14:54:17;5.18;;;3.33;;
18669;SDS011;9464;44.918;9.670;2022-08-26T14:56:46;4.60;;;3.22;;
18669;SDS011;9464;44.918;9.670;2022-08-26T14:59:15;4.82;;;3.10;;
18669;SDS011;9464;44.918;9.670;2022-08-26T15:01:44;4.85;;;3.83;;
18669;SDS011;9464;44.918;9.670;2022-08-26T15:04:15;5.68;;;3.50;;
18669;SDS011;9464;44.918;9.670;2022-08-26T15:06:43;4.78;;;3.58;;
18669;SDS011;9464;44.918;9.670;2022-08-26T15:09:12;3.95;;;2.95;;
18669;SDS011;9464;44.918;9.670;2022-08-26T15:11:41;4.38;;;3.08;;
18669;SDS011;9464;44.918;9.670;2022-08-26T15:14:13;5.72;;;3.28;;
18669;SDS011;9464;44.918;9.670;2022-08-26T15:16:45;3.55;;;2.90;;
18669;SDS011;9464;44.918;9.670;2022-08-26T15:19:15;5.00;;;3.10;;
18669;SDS011;9464;44.918;9.670;2022-08-26T15:21:44;3.40;;;3.08;;
18669;SDS011;9464;44.918;9.670;2022-08-26T15:24:13;6.57;;;2.65;;
18669;SDS011;9464;44.918;9.670;2022-08-26T15:26:42;3.22;;;2.92;;
18669;SDS011;9464;44.918;9.670;2022-08-26T15:29:10;2.70;;;2.50;;
18669;SDS011;9464;44.918;9.670;2022-08-26T15:31:39;4.18;;;2.67;;
18669;SDS011;9464;44.918;9.670;2022-08-26T15:34:09;4.47;;;3.20;;
18669;SDS011;9464;44.918;9.670;2022-08-26T15:36:44;4.05;;;2.88;;
18669;SDS011;9464;44.918;9.670;2022-08-26T15:39:13;5.35;;;2.90;;